Sutherland Springs, Texas
Current Conditions -  °F | °C
As of 11:58 AM on Friday 24 Oct 2014 (Local Time) from KRND Reporting Station
Clear Clear  
Wind Chill: 26°   Ceiling: Unl
Heat Index: 26°   Visibility: 10mi
Dew Point: 14°   Wind: 2mph
Humidity: 49%   Direction: NA
Pressure: 30.19"   Gusts: NA
Location:  29.27°N, 98.06°W
Report Text: KRND 241658Z AUTO VRB02KT 10SM CLR 26/14 A3019 RMK AO2 SLP217 T02560142
Loading
Personal Weather Stations






























Interactive Weather Map
Tropical Storm Tracking
New forecast layout! Learn more

10-Day Weather Forecast

Advertisements
Track Severe Weather on mobile